createdAt,value
2022-10-07T00:00:17.842Z,84.74
2022-10-07T00:01:20.764Z,84.62
2022-10-07T00:02:24.197Z,84.67
2022-10-07T00:03:59.087Z,84.64
2022-10-07T00:05:01.667Z,84.65
2022-10-07T00:06:04.305Z,84.62
2022-10-07T00:07:38.722Z,84.61
2022-10-07T00:08:41.894Z,84.65
2022-10-07T00:09:44.524Z,84.68
2022-10-07T00:11:19.122Z,84.62
2022-10-07T00:12:21.893Z,84.60
2022-10-07T00:13:24.439Z,84.58
2022-10-07T00:14:58.947Z,84.51
2022-10-07T00:16:01.534Z,84.67
2022-10-07T00:17:05.273Z,84.56
2022-10-07T00:18:39.997Z,84.51
2022-10-07T00:19:43.145Z,84.43
2022-10-07T00:20:45.841Z,84.52
2022-10-07T00:22:20.209Z,84.57
2022-10-07T00:23:22.854Z,84.60
2022-10-07T00:24:25.685Z,84.50
2022-10-07T00:26:00.254Z,84.58
2022-10-07T00:27:02.925Z,84.50
2022-10-07T00:28:06.037Z,84.51
2022-10-07T00:29:41.116Z,84.60
2022-10-07T00:30:43.941Z,84.56
2022-10-07T00:31:47.252Z,84.46
2022-10-07T00:33:26.191Z,84.50
2022-10-07T00:34:29.043Z,84.54
2022-10-07T00:35:31.929Z,84.54
2022-10-07T00:37:06.268Z,84.56
2022-10-07T00:38:08.950Z,84.56
2022-10-07T00:39:11.594Z,84.56
2022-10-07T00:40:46.485Z,84.50
2022-10-07T00:41:49.283Z,84.52
2022-10-07T00:42:52.037Z,84.54
2022-10-07T00:44:26.503Z,84.61
2022-10-07T00:45:29.215Z,84.60
2022-10-07T00:46:32.238Z,84.53
2022-10-07T00:48:06.593Z,84.50
2022-10-07T00:49:09.288Z,84.50
2022-10-07T00:50:11.998Z,84.52
2022-10-07T00:51:46.923Z,84.59
2022-10-07T00:52:49.784Z,84.54
2022-10-07T00:53:52.573Z,84.59
2022-10-07T00:55:27.235Z,84.62
2022-10-07T00:56:30.068Z,84.68
2022-10-07T00:57:32.879Z,84.75
2022-10-07T00:59:07.692Z,84.77
2022-10-07T01:00:17.721Z,84.71
2022-10-07T01:01:20.718Z,84.81
2022-10-07T01:02:23.952Z,84.82
2022-10-07T01:03:59.537Z,84.79
2022-10-07T01:05:02.251Z,84.73
2022-10-07T01:06:04.943Z,84.77
2022-10-07T01:07:39.383Z,84.74
2022-10-07T01:08:45.375Z,84.90
2022-10-07T01:09:48.313Z,84.86
2022-10-07T01:11:23.052Z,84.95
2022-10-07T01:12:25.874Z,84.98
2022-10-07T01:13:28.498Z,84.93
2022-10-07T01:15:03.062Z,85.07
2022-10-07T01:16:05.939Z,85.14
2022-10-07T01:17:09.392Z,85.14
2022-10-07T01:18:43.847Z,85.25
2022-10-07T01:19:46.532Z,85.22
2022-10-07T01:20:49.261Z,85.31
2022-10-07T01:22:23.751Z,85.40
2022-10-07T01:23:26.650Z,85.50
2022-10-07T01:24:29.380Z,85.41
2022-10-07T01:26:03.969Z,85.45
2022-10-07T01:27:06.760Z,85.52
2022-10-07T01:28:09.579Z,85.59
2022-10-07T01:29:45.136Z,85.72
2022-10-07T01:30:48.245Z,85.69
2022-10-07T01:31:51.645Z,85.70
2022-10-07T01:33:26.225Z,85.94
2022-10-07T01:34:28.879Z,85.91
2022-10-07T01:35:31.749Z,85.93
2022-10-07T01:37:06.559Z,85.97
2022-10-07T01:38:09.233Z,86.04
2022-10-07T01:39:11.923Z,86.07
2022-10-07T01:40:46.593Z,86.16
2022-10-07T01:41:49.425Z,86.12
2022-10-07T01:42:52.271Z,86.24
2022-10-07T01:44:27.065Z,86.25
2022-10-07T01:45:29.772Z,86.24
2022-10-07T01:46:32.933Z,86.26
2022-10-07T01:48:07.614Z,86.41
2022-10-07T01:49:10.267Z,86.36
2022-10-07T01:50:13.092Z,86.47
2022-10-07T01:51:47.711Z,86.47
2022-10-07T01:52:50.508Z,86.39
2022-10-07T01:53:53.383Z,86.41
2022-10-07T01:55:27.822Z,86.52
2022-10-07T01:56:30.472Z,86.59
2022-10-07T01:57:33.228Z,86.57
2022-10-07T01:59:08.248Z,86.77
2022-10-07T02:00:18.157Z,86.77
2022-10-07T02:01:21.039Z,86.90
2022-10-07T02:02:24.591Z,87.03
2022-10-07T02:03:59.588Z,87.21
2022-10-07T02:05:02.530Z,87.19
2022-10-07T02:06:05.257Z,87.41
2022-10-07T02:07:39.753Z,87.36
2022-10-07T02:08:43.334Z,87.42
2022-10-07T02:09:46.032Z,87.43
2022-10-07T02:11:20.542Z,87.37
2022-10-07T02:12:23.175Z,87.59
2022-10-07T02:13:25.796Z,87.57
2022-10-07T02:15:00.324Z,87.57
2022-10-07T02:16:03.444Z,87.67
2022-10-07T02:17:07.995Z,87.59
2022-10-07T02:18:42.285Z,87.70
2022-10-07T02:19:44.980Z,87.73
2022-10-07T02:20:47.699Z,87.81
2022-10-07T02:22:22.117Z,87.85
2022-10-07T02:23:24.852Z,87.87
2022-10-07T02:24:27.656Z,87.77
2022-10-07T02:26:02.254Z,88.02
2022-10-07T02:27:05.080Z,88.17
2022-10-07T02:28:07.966Z,88.22
2022-10-07T02:29:43.000Z,88.28
2022-10-07T02:30:45.835Z,88.18
2022-10-07T02:31:48.847Z,88.07
2022-10-07T02:33:23.265Z,88.24
2022-10-07T02:34:26.048Z,88.26
2022-10-07T02:35:28.811Z,88.33
2022-10-07T02:37:03.259Z,88.30
2022-10-07T02:38:06.059Z,88.41
2022-10-07T02:39:08.790Z,88.46
2022-10-07T02:40:43.239Z,88.40
2022-10-07T02:41:45.921Z,88.47
2022-10-07T02:42:48.633Z,88.41
2022-10-07T02:44:23.055Z,88.48
2022-10-07T02:45:32.175Z,88.59
2022-10-07T02:46:35.276Z,88.57
2022-10-07T02:48:10.085Z,88.61
2022-10-07T02:49:12.823Z,88.70
2022-10-07T02:50:15.602Z,88.79
2022-10-07T02:51:50.218Z,88.87
2022-10-07T02:52:52.835Z,89.08
2022-10-07T02:53:55.527Z,88.94
2022-10-07T02:55:29.885Z,89.05
2022-10-07T02:56:32.634Z,89.11
2022-10-07T02:57:35.392Z,89.16
2022-10-07T02:59:11.049Z,89.14
2022-10-07T03:00:17.800Z,89.15
2022-10-07T03:01:20.633Z,89.26
2022-10-07T03:02:23.874Z,89.18
2022-10-07T03:03:58.814Z,89.16
2022-10-07T03:05:01.638Z,89.17
2022-10-07T03:06:04.544Z,89.24
2022-10-07T03:07:39.156Z,89.14
2022-10-07T03:08:42.135Z,89.07
2022-10-07T03:09:44.790Z,89.11
2022-10-07T03:11:19.606Z,89.26
2022-10-07T03:12:22.258Z,89.39
2022-10-07T03:13:25.194Z,89.33
2022-10-07T03:14:59.752Z,89.28
2022-10-07T03:16:02.478Z,89.25
2022-10-07T03:17:05.591Z,89.31
2022-10-07T03:18:39.993Z,89.28
2022-10-07T03:19:42.672Z,89.45
2022-10-07T03:20:45.301Z,89.38
2022-10-07T03:22:20.170Z,89.36
2022-10-07T03:23:22.963Z,89.63
2022-10-07T03:24:25.705Z,89.56
2022-10-07T03:26:00.288Z,89.58
2022-10-07T03:27:03.104Z,89.61
2022-10-07T03:28:05.933Z,89.54
2022-10-07T03:29:41.084Z,89.63
2022-10-07T03:30:43.754Z,89.65
2022-10-07T03:31:47.094Z,89.66
2022-10-07T03:33:21.616Z,89.54
2022-10-07T03:34:24.328Z,89.54
2022-10-07T03:35:27.050Z,89.63
2022-10-07T03:37:01.536Z,89.75
2022-10-07T03:38:04.317Z,89.80
2022-10-07T03:39:06.967Z,89.80
2022-10-07T03:40:41.531Z,89.82
2022-10-07T03:41:44.241Z,89.92
2022-10-07T03:42:46.857Z,89.97
2022-10-07T03:44:21.358Z,90.01
2022-10-07T03:45:24.216Z,90.21
2022-10-07T03:46:27.132Z,90.19
2022-10-07T03:48:03.413Z,90.21
2022-10-07T03:49:06.176Z,90.25
2022-10-07T03:50:08.803Z,90.20
2022-10-07T03:51:43.449Z,90.30
2022-10-07T03:52:46.057Z,90.39
2022-10-07T03:53:48.744Z,90.41
2022-10-07T03:55:23.277Z,90.57
2022-10-07T03:56:25.950Z,90.52
2022-10-07T03:57:28.859Z,90.55
2022-10-07T03:59:11.325Z,90.51
2022-10-07T04:00:17.669Z,90.50
2022-10-07T04:01:20.522Z,90.49
2022-10-07T04:02:23.726Z,90.40
2022-10-07T04:03:59.364Z,90.37
2022-10-07T04:05:48.634Z,90.38
2022-10-07T04:06:51.888Z,90.50
2022-10-07T04:07:54.959Z,90.46
2022-10-07T04:09:29.584Z,90.37
2022-10-07T04:10:32.661Z,90.28
2022-10-07T04:11:35.853Z,90.32
2022-10-07T04:13:11.106Z,90.38
2022-10-07T04:14:14.034Z,90.34
2022-10-07T04:15:16.970Z,90.27
2022-10-07T04:16:51.886Z,90.38
2022-10-07T04:17:55.900Z,90.33
2022-10-07T04:18:58.742Z,90.43
2022-10-07T04:20:33.434Z,90.44
2022-10-07T04:21:36.538Z,90.56
2022-10-07T04:22:39.472Z,90.50
2022-10-07T04:24:14.286Z,90.55
2022-10-07T04:25:17.186Z,90.63
2022-10-07T04:26:20.260Z,90.65
2022-10-07T04:28:27.925Z,90.56
2022-10-07T04:29:34.201Z,90.55
2022-10-07T04:30:41.285Z,90.59
2022-10-07T04:32:16.735Z,90.54
2022-10-07T04:33:19.733Z,90.65
2022-10-07T04:34:22.691Z,90.52
2022-10-07T04:35:57.737Z,90.50
2022-10-07T04:37:00.705Z,90.52
2022-10-07T04:38:03.626Z,90.58
2022-10-07T04:40:05.584Z,90.52
2022-10-07T04:41:08.528Z,90.57
2022-10-07T04:42:11.290Z,90.63
2022-10-07T04:43:46.187Z,90.58
2022-10-07T04:44:54.833Z,90.54
2022-10-07T04:45:57.591Z,90.58
2022-10-07T04:47:32.865Z,90.67
2022-10-07T04:48:36.116Z,90.65
2022-10-07T04:49:38.867Z,90.60
2022-10-07T04:51:13.808Z,90.68
2022-10-07T04:52:16.388Z,90.70
2022-10-07T04:53:19.357Z,90.74
2022-10-07T04:54:54.266Z,90.74
2022-10-07T04:55:57.113Z,90.75
2022-10-07T04:57:00.124Z,90.81
2022-10-07T04:58:35.443Z,90.91
2022-10-07T04:59:42.877Z,90.95
2022-10-07T05:00:17.676Z,90.95
2022-10-07T05:01:21.102Z,91.01
2022-10-07T05:02:24.495Z,91.08
2022-10-07T05:03:59.468Z,91.12
2022-10-07T05:05:02.323Z,91.27
2022-10-07T05:06:11.167Z,91.35
2022-10-07T05:07:46.527Z,91.56
2022-10-07T05:08:49.939Z,91.73
2022-10-07T05:09:52.792Z,91.78
2022-10-07T05:11:27.591Z,91.72
2022-10-07T05:12:30.613Z,91.63
2022-10-07T05:13:37.863Z,91.62
2022-10-07T05:15:12.474Z,91.77
2022-10-07T05:16:16.167Z,91.75
2022-10-07T05:17:19.727Z,91.94
2022-10-07T05:18:54.773Z,91.87
2022-10-07T05:19:57.510Z,91.91
2022-10-07T05:21:00.423Z,92.04
2022-10-07T05:22:35.367Z,92.17
2022-10-07T05:23:38.148Z,92.11
2022-10-07T05:24:41.180Z,92.15
2022-10-07T05:26:16.093Z,92.12
2022-10-07T05:27:19.202Z,92.04
2022-10-07T05:28:22.268Z,92.03
2022-10-07T05:29:57.575Z,91.99
2022-10-07T05:31:00.514Z,92.00
2022-10-07T05:32:10.358Z,91.99
2022-10-07T05:33:45.070Z,91.99
2022-10-07T05:34:48.191Z,91.99
2022-10-07T05:35:51.048Z,92.03
2022-10-07T05:37:25.947Z,91.99
2022-10-07T05:38:35.945Z,92.00
2022-10-07T05:39:38.959Z,91.89
2022-10-07T05:41:14.006Z,91.89
2022-10-07T05:42:26.406Z,91.97
2022-10-07T05:43:29.465Z,91.95
2022-10-07T05:45:04.264Z,91.94
2022-10-07T05:46:07.524Z,91.91
2022-10-07T05:47:10.599Z,91.79
2022-10-07T05:48:45.412Z,91.73
2022-10-07T05:49:48.194Z,91.72
2022-10-07T05:50:51.178Z,91.73
2022-10-07T05:52:26.178Z,91.78
2022-10-07T05:53:29.225Z,91.84
2022-10-07T05:54:32.297Z,91.88
2022-10-07T05:56:07.058Z,91.79
2022-10-07T05:57:10.073Z,91.77
2022-10-07T05:58:13.112Z,91.79
2022-10-07T05:59:47.897Z,91.83
2022-10-07T06:00:17.464Z,91.83
2022-10-07T06:01:20.530Z,91.82
2022-10-07T06:02:23.980Z,91.97
2022-10-07T06:03:59.868Z,91.95
2022-10-07T06:05:02.845Z,92.01
2022-10-07T06:06:05.686Z,91.97
2022-10-07T06:07:40.425Z,92.03
2022-10-07T06:08:44.169Z,92.00
2022-10-07T06:09:47.274Z,91.97
2022-10-07T06:11:22.121Z,92.05
2022-10-07T06:12:24.936Z,92.02
2022-10-07T06:13:28.219Z,92.04
2022-10-07T06:15:02.988Z,92.09
2022-10-07T06:16:05.776Z,92.31
2022-10-07T06:17:09.118Z,92.16
2022-10-07T06:18:44.038Z,92.17
2022-10-07T06:19:46.917Z,92.16
2022-10-07T06:20:49.936Z,92.16
2022-10-07T06:22:25.053Z,92.17
2022-10-07T06:23:28.180Z,92.13
2022-10-07T06:24:30.916Z,92.12
2022-10-07T06:26:06.090Z,92.28
2022-10-07T06:27:08.965Z,92.24
2022-10-07T06:28:12.294Z,92.24
2022-10-07T06:29:47.550Z,92.24
2022-10-07T06:30:50.539Z,92.33
2022-10-07T06:31:54.341Z,92.26
2022-10-07T06:33:29.179Z,92.25
2022-10-07T06:34:32.140Z,92.31
2022-10-07T06:35:34.942Z,92.28
2022-10-07T06:37:16.537Z,92.47
2022-10-07T06:38:19.486Z,92.39
2022-10-07T06:39:22.340Z,92.44
2022-10-07T06:40:57.259Z,92.51
2022-10-07T06:42:00.403Z,92.50
2022-10-07T06:43:03.641Z,92.50
2022-10-07T06:44:38.740Z,92.42
2022-10-07T06:45:41.929Z,92.43
2022-10-07T06:46:45.385Z,92.44
2022-10-07T06:48:25.263Z,92.46
2022-10-07T06:49:28.296Z,92.62
2022-10-07T06:50:31.136Z,92.57
2022-10-07T06:52:06.079Z,92.74
2022-10-07T06:53:09.211Z,92.72
2022-10-07T06:54:12.328Z,92.72
2022-10-07T06:55:47.263Z,92.62
2022-10-07T06:56:50.329Z,92.64
2022-10-07T06:58:28.106Z,92.55
2022-10-07T07:00:18.168Z,92.58
2022-10-07T07:01:21.157Z,92.56
2022-10-07T07:02:24.592Z,92.53
2022-10-07T07:03:59.746Z,92.41
2022-10-07T07:05:03.728Z,92.47
2022-10-07T07:06:06.802Z,92.10
2022-10-07T07:07:41.770Z,92.11
2022-10-07T07:08:45.459Z,92.02
2022-10-07T07:09:48.541Z,91.84
2022-10-07T07:11:23.614Z,91.68
2022-10-07T07:12:26.523Z,91.55
2022-10-07T07:13:31.625Z,91.34
2022-10-07T07:15:09.728Z,91.35
2022-10-07T07:16:12.726Z,91.12
2022-10-07T07:17:16.727Z,91.04
2022-10-07T07:18:51.729Z,90.87
2022-10-07T07:19:54.695Z,90.72
2022-10-07T07:20:57.919Z,90.50
2022-10-07T07:22:37.370Z,90.42
2022-10-07T07:23:40.196Z,90.41
2022-10-07T07:24:43.435Z,90.44
2022-10-07T07:26:18.629Z,90.34
2022-10-07T07:27:21.551Z,90.31
2022-10-07T07:28:25.213Z,90.07
2022-10-07T07:30:00.636Z,89.62
2022-10-07T07:31:04.023Z,89.41
2022-10-07T07:32:07.511Z,89.67
2022-10-07T07:33:42.525Z,89.35
2022-10-07T07:34:45.704Z,89.03
2022-10-07T07:35:51.669Z,89.01
2022-10-07T07:37:26.624Z,88.77
2022-10-07T07:38:31.279Z,88.66
2022-10-07T07:39:34.264Z,88.59
2022-10-07T07:41:08.733Z,88.25
2022-10-07T07:42:11.845Z,88.31
2022-10-07T07:43:14.757Z,88.20
2022-10-07T07:44:49.720Z,88.15
2022-10-07T07:45:52.966Z,87.96
2022-10-07T07:46:56.481Z,87.98
2022-10-07T07:48:31.907Z,87.60
2022-10-07T07:49:34.883Z,87.50
2022-10-07T07:50:37.944Z,87.42
2022-10-07T07:52:12.664Z,87.25
2022-10-07T07:53:15.742Z,86.85
2022-10-07T07:54:18.891Z,87.08
2022-10-07T07:55:53.774Z,87.14
2022-10-07T07:56:56.655Z,86.86
2022-10-07T07:57:59.489Z,86.79
2022-10-07T07:59:40.500Z,86.45
2022-10-07T08:00:18.105Z,86.56
2022-10-07T08:01:21.487Z,86.07
2022-10-07T08:02:24.785Z,86.08
2022-10-07T08:04:00.083Z,85.47
2022-10-07T08:05:02.925Z,85.56
2022-10-07T08:06:10.297Z,85.39
2022-10-07T08:07:45.455Z,85.16
2022-10-07T08:08:48.581Z,85.39
2022-10-07T08:09:51.689Z,85.16
2022-10-07T08:11:32.200Z,85.13
2022-10-07T08:12:35.270Z,84.86
2022-10-07T08:13:38.229Z,84.99
2022-10-07T08:15:13.191Z,85.17
2022-10-07T08:16:16.490Z,84.87
2022-10-07T08:17:19.605Z,84.75
2022-10-07T08:18:54.623Z,84.65
2022-10-07T08:19:57.651Z,84.55
2022-10-07T08:21:00.753Z,84.47
2022-10-07T08:22:36.189Z,84.59
2022-10-07T08:23:45.103Z,84.32
2022-10-07T08:24:47.992Z,83.97
2022-10-07T08:26:23.187Z,83.98
2022-10-07T08:27:26.303Z,83.26
2022-10-07T08:28:30.194Z,83.45
2022-10-07T08:30:04.987Z,83.34
2022-10-07T08:31:08.148Z,83.20
2022-10-07T08:32:11.484Z,83.06
2022-10-07T08:33:52.854Z,83.13
2022-10-07T08:34:55.897Z,82.62
2022-10-07T08:35:58.999Z,83.15
2022-10-07T08:37:33.977Z,82.91
2022-10-07T08:38:37.551Z,82.36
2022-10-07T08:39:40.625Z,82.07
2022-10-07T08:41:15.510Z,81.57
2022-10-07T08:42:18.478Z,81.34
2022-10-07T08:43:21.525Z,80.77
2022-10-07T08:45:03.132Z,79.60
2022-10-07T08:46:06.126Z,79.68
2022-10-07T08:47:09.901Z,80.24
2022-10-07T08:48:44.990Z,80.06
2022-10-07T08:49:48.130Z,78.99
2022-10-07T08:50:57.202Z,78.93
2022-10-07T08:52:31.854Z,78.84
2022-10-07T08:53:34.955Z,78.89
2022-10-07T08:54:37.930Z,78.77
2022-10-07T08:56:12.715Z,77.97
2022-10-07T08:57:15.503Z,77.79
2022-10-07T08:58:18.630Z,78.35
2022-10-07T08:59:53.910Z,77.73
2022-10-07T09:00:17.474Z,77.28
2022-10-07T09:01:20.526Z,77.61
2022-10-07T09:02:24.135Z,77.27
2022-10-07T09:04:05.480Z,76.79
2022-10-07T09:05:08.553Z,77.03
2022-10-07T09:06:11.460Z,77.41
2022-10-07T09:07:46.614Z,76.73
2022-10-07T09:08:49.719Z,76.57
2022-10-07T09:09:52.694Z,76.43
2022-10-07T09:11:27.907Z,76.09
2022-10-07T09:12:30.889Z,74.34
2022-10-07T09:13:33.995Z,75.42
2022-10-07T09:15:09.042Z,74.69
2022-10-07T09:16:12.451Z,74.22
2022-10-07T09:17:15.790Z,74.33
2022-10-07T09:18:56.565Z,72.89
2022-10-07T09:19:59.731Z,73.79
2022-10-07T09:21:02.633Z,73.40
2022-10-07T09:22:37.497Z,75.36
2022-10-07T09:23:40.305Z,74.38
2022-10-07T09:26:23.774Z,73.82
2022-10-07T09:27:26.772Z,73.16
2022-10-07T09:28:30.286Z,74.00
2022-10-07T09:30:05.634Z,72.56
2022-10-07T09:31:09.015Z,72.68
2022-10-07T09:32:12.519Z,72.53
2022-10-07T09:33:47.163Z,72.96
2022-10-07T09:34:50.050Z,74.11
2022-10-07T09:35:57.367Z,73.60
2022-10-07T09:37:32.831Z,72.43
2022-10-07T09:38:36.319Z,72.37
2022-10-07T09:39:39.078Z,72.77
2022-10-07T09:41:13.951Z,72.96
2022-10-07T09:42:22.933Z,72.63
2022-10-07T09:43:25.904Z,72.03
2022-10-07T09:45:00.860Z,72.05
2022-10-07T09:46:03.936Z,72.05
2022-10-07T09:47:07.228Z,71.62
2022-10-07T09:48:42.198Z,72.27
2022-10-07T09:49:45.095Z,71.82
2022-10-07T09:50:48.265Z,72.54
2022-10-07T09:52:23.244Z,72.33
2022-10-07T09:53:26.125Z,72.61
2022-10-07T09:54:29.169Z,71.60
2022-10-07T09:56:03.874Z,72.00
2022-10-07T09:57:07.013Z,72.17
2022-10-07T09:58:16.193Z,72.68
2022-10-07T09:59:51.084Z,72.62
2022-10-07T10:00:18.228Z,72.62
2022-10-07T10:01:21.231Z,72.37
2022-10-07T10:02:24.765Z,72.47
2022-10-07T10:04:00.861Z,72.29
2022-10-07T10:05:03.922Z,72.11
2022-10-07T10:06:07.014Z,72.58
2022-10-07T10:07:42.560Z,72.03
2022-10-07T10:08:45.826Z,71.54
2022-10-07T10:09:48.993Z,70.90
2022-10-07T10:11:24.061Z,71.70
2022-10-07T10:12:27.039Z,72.02
2022-10-07T10:13:35.530Z,71.57
2022-10-07T10:15:10.584Z,72.36
2022-10-07T10:16:13.810Z,72.79
2022-10-07T10:17:17.232Z,71.84
2022-10-07T10:18:51.960Z,72.42
2022-10-07T10:19:54.842Z,72.24
2022-10-07T10:20:57.751Z,72.74
2022-10-07T10:22:32.635Z,72.75
2022-10-07T10:23:36.399Z,72.86
2022-10-07T10:24:39.408Z,72.09
2022-10-07T10:26:14.669Z,72.44
2022-10-07T10:27:25.373Z,72.84
2022-10-07T10:28:28.547Z,73.03
2022-10-07T10:30:03.694Z,73.39
2022-10-07T10:31:06.895Z,74.00
2022-10-07T10:32:10.508Z,74.05
2022-10-07T10:33:45.855Z,73.33
2022-10-07T10:34:48.897Z,73.33
2022-10-07T10:35:51.783Z,73.25
2022-10-07T10:37:26.980Z,73.21
2022-10-07T10:38:30.037Z,73.17
2022-10-07T10:39:33.207Z,72.91
2022-10-07T10:41:08.285Z,72.77
2022-10-07T10:42:11.775Z,72.95
2022-10-07T10:43:14.812Z,72.79
2022-10-07T10:44:49.876Z,73.17
2022-10-07T10:45:52.974Z,72.18
2022-10-07T10:46:57.950Z,71.57
2022-10-07T10:48:33.073Z,71.28
2022-10-07T10:49:36.288Z,72.24
2022-10-07T10:50:39.157Z,72.54
2022-10-07T10:52:19.112Z,71.81
2022-10-07T10:53:22.051Z,71.72
2022-10-07T10:54:25.329Z,70.69
2022-10-07T10:55:59.924Z,71.03
2022-10-07T10:57:02.915Z,71.08
2022-10-07T10:58:06.655Z,70.76
2022-10-07T10:59:41.775Z,70.22
2022-10-07T11:00:17.944Z,70.22
2022-10-07T11:01:21.052Z,69.93
2022-10-07T11:02:25.111Z,70.16
2022-10-07T11:04:02.077Z,70.00
2022-10-07T11:05:05.043Z,69.68
2022-10-07T11:06:08.163Z,69.79
2022-10-07T11:07:46.147Z,70.65
2022-10-07T11:08:49.032Z,71.38
2022-10-07T11:09:52.174Z,70.58
2022-10-07T11:11:27.478Z,69.46
2022-10-07T11:12:30.688Z,69.81
2022-10-07T11:13:35.568Z,69.64
2022-10-07T11:15:10.419Z,70.69
2022-10-07T11:16:13.611Z,71.00
2022-10-07T11:17:16.877Z,69.67
2022-10-07T11:18:52.121Z,67.90
2022-10-07T11:19:55.253Z,68.19
2022-10-07T11:20:58.363Z,68.55
2022-10-07T11:22:33.186Z,68.20
2022-10-07T11:23:36.725Z,68.50
2022-10-07T11:24:39.802Z,67.86
2022-10-07T11:26:14.864Z,69.35
2022-10-07T11:27:21.304Z,68.86
2022-10-07T11:28:24.669Z,67.47
2022-10-07T11:30:00.027Z,66.56
2022-10-07T11:31:03.471Z,66.96
2022-10-07T11:32:07.205Z,67.22
2022-10-07T11:33:42.464Z,66.76
2022-10-07T11:34:45.484Z,67.21
2022-10-07T11:35:52.554Z,67.51
2022-10-07T11:37:27.653Z,65.91
2022-10-07T11:38:30.680Z,66.01
2022-10-07T11:39:33.531Z,66.75
2022-10-07T11:41:14.901Z,66.94
2022-10-07T11:42:18.234Z,67.09
2022-10-07T11:43:21.035Z,66.76
2022-10-07T11:44:56.398Z,66.07
2022-10-07T11:45:59.580Z,66.31
2022-10-07T11:47:09.379Z,66.29
2022-10-07T11:48:44.410Z,65.81
2022-10-07T11:49:47.477Z,66.13
2022-10-07T11:50:50.395Z,65.53
2022-10-07T11:52:25.591Z,66.08
2022-10-07T11:53:36.276Z,66.41
2022-10-07T11:54:39.391Z,65.23
2022-10-07T11:56:14.265Z,65.57
2022-10-07T11:57:17.415Z,65.13
2022-10-07T11:58:20.322Z,64.60
2022-10-07T11:59:55.389Z,64.28
2022-10-07T12:00:17.663Z,64.28
2022-10-07T12:01:20.769Z,65.00
2022-10-07T12:02:24.137Z,66.33
2022-10-07T12:04:00.608Z,64.92
2022-10-07T12:05:03.673Z,64.22
2022-10-07T12:06:06.729Z,64.41
2022-10-07T12:07:41.870Z,63.78
2022-10-07T12:08:44.683Z,63.32
2022-10-07T12:09:47.790Z,63.80
2022-10-07T12:11:22.982Z,63.80
2022-10-07T12:12:26.073Z,64.02
2022-10-07T12:13:30.185Z,63.98
2022-10-07T12:15:05.046Z,63.25
2022-10-07T12:16:08.162Z,63.50
2022-10-07T12:17:11.553Z,63.45
2022-10-07T12:18:46.667Z,64.90
2022-10-07T12:19:50.367Z,61.84
2022-10-07T12:20:53.344Z,62.45
2022-10-07T12:22:28.057Z,61.49
2022-10-07T12:23:31.394Z,60.87
2022-10-07T12:24:34.289Z,62.01
2022-10-07T12:26:09.294Z,63.05
2022-10-07T12:27:12.508Z,63.14
2022-10-07T12:28:15.468Z,62.57
2022-10-07T12:29:50.862Z,62.87
2022-10-07T12:30:53.832Z,61.65
2022-10-07T12:31:57.098Z,62.03
2022-10-07T12:33:32.764Z,62.28
2022-10-07T12:34:35.784Z,61.85
2022-10-07T12:35:38.830Z,60.87
2022-10-07T12:37:18.235Z,61.25
2022-10-07T12:38:21.323Z,61.35
2022-10-07T12:39:24.324Z,62.13
2022-10-07T12:40:59.186Z,62.12
2022-10-07T12:42:02.027Z,61.91
2022-10-07T12:43:05.333Z,61.00
2022-10-07T12:44:40.523Z,61.97
2022-10-07T12:45:43.698Z,63.07
2022-10-07T12:46:47.381Z,62.64
2022-10-07T12:48:27.436Z,61.21
2022-10-07T12:49:30.196Z,61.65
2022-10-07T12:50:33.247Z,61.86
2022-10-07T12:52:08.577Z,61.47
2022-10-07T12:53:11.459Z,62.06
2022-10-07T12:54:14.594Z,62.54
2022-10-07T12:55:49.933Z,61.02
2022-10-07T12:56:52.903Z,59.67
2022-10-07T12:57:55.749Z,59.53
2022-10-07T12:59:30.584Z,60.79
2022-10-07T13:00:18.052Z,61.23
2022-10-07T13:01:21.570Z,60.03
2022-10-07T13:02:26.168Z,60.53
2022-10-07T13:04:02.192Z,60.87
2022-10-07T13:05:05.040Z,60.85
2022-10-07T13:06:08.098Z,60.97
2022-10-07T13:07:43.254Z,58.42
2022-10-07T13:08:46.545Z,57.90
2022-10-07T13:09:50.079Z,58.54
2022-10-07T13:11:25.705Z,57.63
2022-10-07T13:12:33.906Z,57.38
2022-10-07T13:13:37.588Z,57.04
2022-10-07T13:15:12.162Z,59.52
2022-10-07T13:16:16.068Z,59.23
2022-10-07T13:17:19.668Z,58.99
2022-10-07T13:18:57.380Z,58.67
2022-10-07T13:20:00.625Z,58.58
2022-10-07T13:21:03.672Z,59.63
2022-10-07T13:22:38.753Z,59.37
2022-10-07T13:23:42.201Z,58.49
2022-10-07T13:24:45.399Z,59.90
2022-10-07T13:26:20.484Z,58.98
2022-10-07T13:27:23.455Z,59.91
2022-10-07T13:28:26.588Z,60.28
2022-10-07T13:30:06.372Z,58.80
2022-10-07T13:31:09.321Z,58.62
2022-10-07T13:32:12.735Z,58.82
2022-10-07T13:33:47.745Z,59.21
2022-10-07T13:34:50.923Z,60.02
2022-10-07T13:35:53.917Z,59.55
2022-10-07T13:37:28.885Z,58.22
2022-10-07T13:38:31.756Z,57.91
2022-10-07T13:39:34.900Z,57.62
2022-10-07T13:41:09.998Z,58.83
2022-10-07T13:42:12.962Z,58.17
2022-10-07T13:43:18.874Z,58.49
2022-10-07T13:44:54.075Z,57.98
2022-10-07T13:45:57.214Z,58.57
2022-10-07T13:47:00.909Z,58.12
2022-10-07T13:48:35.517Z,57.54
2022-10-07T13:49:43.142Z,57.83
2022-10-07T13:50:46.464Z,58.83
2022-10-07T13:52:21.053Z,58.71
2022-10-07T13:53:24.644Z,59.59
2022-10-07T13:54:27.795Z,59.61
2022-10-07T13:56:03.184Z,59.47
2022-10-07T13:57:10.182Z,58.52
2022-10-07T13:58:19.079Z,58.80
2022-10-07T13:59:53.933Z,58.21
2022-10-07T14:00:18.120Z,58.87
2022-10-07T14:01:21.558Z,58.78
2022-10-07T14:02:25.479Z,59.61
2022-10-07T14:04:05.508Z,60.32
2022-10-07T14:05:08.575Z,58.61
2022-10-07T14:06:11.686Z,59.96
2022-10-07T14:07:46.586Z,59.03
2022-10-07T14:08:49.818Z,59.68
2022-10-07T14:09:52.800Z,60.10
2022-10-07T14:11:27.910Z,60.47
2022-10-07T14:12:30.728Z,61.04
2022-10-07T14:13:34.229Z,59.65
2022-10-07T14:15:09.102Z,60.15
2022-10-07T14:16:12.276Z,59.96
2022-10-07T14:17:15.490Z,60.27
2022-10-07T14:18:50.318Z,60.83
2022-10-07T14:19:57.913Z,60.23
2022-10-07T14:21:00.971Z,59.73
2022-10-07T14:22:36.187Z,60.15
2022-10-07T14:23:39.691Z,59.82
2022-10-07T14:24:43.045Z,59.77
2022-10-07T14:26:18.139Z,59.87
2022-10-07T14:27:21.293Z,59.84
2022-10-07T14:28:24.230Z,60.45
2022-10-07T14:29:59.870Z,60.51
2022-10-07T14:31:03.275Z,60.34
2022-10-07T14:32:06.928Z,60.64
2022-10-07T14:33:41.778Z,60.16
2022-10-07T14:34:44.607Z,59.91
2022-10-07T14:35:47.720Z,60.25
2022-10-07T14:37:22.831Z,60.97
2022-10-07T14:38:29.581Z,60.51
2022-10-07T14:39:32.665Z,61.92
2022-10-07T14:41:07.792Z,62.22
2022-10-07T14:42:10.812Z,61.32
2022-10-07T14:43:13.790Z,61.55
2022-10-07T14:44:49.018Z,62.23
2022-10-07T14:45:52.293Z,62.61
2022-10-07T14:46:55.830Z,62.50
2022-10-07T14:48:31.010Z,62.80
2022-10-07T14:49:33.945Z,62.99
2022-10-07T14:50:36.842Z,63.47
2022-10-07T14:52:11.770Z,63.32
2022-10-07T14:53:14.797Z,63.11
2022-10-07T14:54:17.858Z,62.71
2022-10-07T14:55:52.826Z,62.73
2022-10-07T14:56:55.797Z,63.39
2022-10-07T14:57:59.053Z,62.90
2022-10-07T14:59:33.970Z,62.32
2022-10-07T15:00:17.581Z,62.58
2022-10-07T15:01:25.872Z,62.93
2022-10-07T15:02:29.018Z,63.24
2022-10-07T15:04:05.223Z,63.95
2022-10-07T15:05:09.441Z,64.39
2022-10-07T15:06:13.197Z,64.27
2022-10-07T15:07:47.917Z,64.25
2022-10-07T15:08:50.818Z,63.58
2022-10-07T15:09:54.076Z,64.13
2022-10-07T15:11:29.018Z,63.95
2022-10-07T15:12:32.010Z,63.90
2022-10-07T15:13:36.155Z,63.96
2022-10-07T15:15:10.932Z,63.60
2022-10-07T15:16:14.109Z,64.17
2022-10-07T15:17:17.614Z,64.57
2022-10-07T15:18:58.380Z,64.83
2022-10-07T15:20:01.436Z,64.85
2022-10-07T15:21:04.813Z,65.11
2022-10-07T15:22:39.559Z,64.91
2022-10-07T15:23:43.420Z,65.33
2022-10-07T15:24:46.477Z,65.21
2022-10-07T15:26:21.417Z,65.01
2022-10-07T15:27:24.258Z,65.57
2022-10-07T15:28:27.317Z,64.49
2022-10-07T15:30:02.624Z,65.71
2022-10-07T15:31:05.750Z,66.16
2022-10-07T15:32:09.338Z,65.76
2022-10-07T15:33:44.328Z,66.26
2022-10-07T15:34:47.011Z,66.77
2022-10-07T15:35:50.302Z,67.06
2022-10-07T15:37:25.465Z,66.50
2022-10-07T15:38:28.697Z,65.83
2022-10-07T15:39:36.187Z,65.68
2022-10-07T15:41:13.664Z,66.26
2022-10-07T15:42:16.676Z,66.40
2022-10-07T15:43:19.548Z,66.71
2022-10-07T15:44:54.549Z,66.56
2022-10-07T15:45:57.683Z,66.70
2022-10-07T15:47:01.112Z,66.43
2022-10-07T15:48:40.927Z,67.23
2022-10-07T15:49:44.127Z,66.85